Greenbush, MN

10:25 AM CDT on September 30, 2014 (GMT -0500)
Thief River Falls Regional | Change Station
CLOSE
Current Station
Airport
Location: Thief River Falls,
Elevation: 1115 ft
Nearby Weather Stations

Elev 1115 ft 48.06 °N, 96.18 °W | Updated 10 minutes ago

Overcast
Overcast
46 °F
Feels Like 40 °F
N
17
Wind Variable Wind from East

Today
High -- | Low -- °F
--% Chance of Precip.
Yesterday
High -- | Low -- °F
Precip. -- in
7:22 AM 7:05 PM
Waxing Crescent, 37% visible
Pressure 29.95 in
Visibility 10.0 miles
Clouds Overcast 1000 ft
Windchill 40 °F
Dew Point 41 °F
Humidity 81%
Rainfall 0.00 in
Snow Depth Not available.
UV 1 out of 12
Pollen 2.60 out of 12
Air Quality Not available.
Flu Activity Not available.
METAR KTVF 301515Z AUTO 10015KT 10SM OVC010 08/05 A2995 RMK AO1

More Conditions Fewer Conditions

Pressure 29.95 in
Visibility 10.0 miles
Clouds Overcast 1000 ft
Windchill 40 °F
Dew Point 41 °F
Humidity 81%
Rainfall 0.00 in
Snow Depth Not available.
UV 1 out of 12
Pollen 2.60 out of 12
Air Quality Not available.
Flu Activity Not available.
METAR KTVF 301515Z AUTO 10015KT 10SM OVC010 08/05 A2995 RMK AO1

More Conditions Fewer Conditions

10-Day Weather Forecast

Almanac

Astronomy

Sep. 30, 2014 Rise Set
Actual Time 7:22 AM CDT 7:05 PM CDT
Civil Twilight 6:51 AM CDT 7:37 PM CDT
Nautical Twilight 6:14 AM CDT 8:13 PM CDT
Astronomical Twilight 5:37 AM CDT 8:50 PM CDT
Moon 1:54 PM CDT 11:14 PM CDT
Length of Visible Light 12h 45m
Length of Day
11h 42m
Tomorrow will be 3m 33s shorter.
Waxing Crescent, 37% of the Moon is Illuminated
Today
Waxing Crescent
Oct 1
First Quarter
Oct 8
Full
Oct 15
Last Quarter
Oct 23
New

Today's Extremes

State Highs State Lows

Community

WunderPhotos

Upload Photos

1,757,668 photos uploaded!

WunderBlogs® & News

Nearby

Snow Depth

Station Depth Elevation
No new snow has been reported.

Earthquake Activity

City Distance Mag. Time & Date
No recent earthquake activity has been reported nearby.
Minimum magnitude displayed is 2.5.

Coastal Water Temperatures

Place Temperature
No Stations Reporting

Nearby Weather Stations